createdAt,value
2018-06-28T00:02:26.681Z,15.10
2018-06-28T00:04:55.538Z,15.00
2018-06-28T00:09:52.118Z,14.90
2018-06-28T00:12:20.426Z,14.90
2018-06-28T00:14:49.172Z,14.90
2018-06-28T00:19:45.950Z,14.80
2018-06-28T00:22:14.063Z,14.80
2018-06-28T00:24:42.882Z,14.70
2018-06-28T00:29:38.870Z,14.70
2018-06-28T00:32:07.038Z,14.70
2018-06-28T00:34:35.381Z,14.70
2018-06-28T00:37:03.989Z,14.70
2018-06-28T00:39:32.162Z,14.70
2018-06-28T00:42:00.263Z,14.70
2018-06-28T00:44:29.240Z,14.60
2018-06-28T00:46:58.477Z,14.60
2018-06-28T00:49:27.003Z,14.70
2018-06-28T00:51:55.449Z,14.60
2018-06-28T00:54:24.535Z,14.60
2018-06-28T00:56:53.095Z,14.50
2018-06-28T00:59:21.252Z,14.60
2018-06-28T01:01:49.609Z,14.50
2018-06-28T01:04:17.846Z,14.50
2018-06-28T01:06:46.831Z,14.40
2018-06-28T01:09:14.958Z,14.40
2018-06-28T01:11:43.430Z,14.30
2018-06-28T01:14:11.855Z,14.20
2018-06-28T01:16:40.005Z,14.20
2018-06-28T01:19:09.649Z,14.10
2018-06-28T01:21:38.190Z,14.00
2018-06-28T01:24:06.286Z,14.00
2018-06-28T01:26:35.275Z,13.90
2018-06-28T01:29:04.018Z,13.90
2018-06-28T01:36:29.234Z,13.70
2018-06-28T01:38:57.584Z,13.70
2018-06-28T01:41:31.870Z,13.80
2018-06-28T01:43:59.936Z,13.80
2018-06-28T01:53:53.059Z,13.90
2018-06-28T01:56:21.430Z,14.00
2018-06-28T01:58:49.666Z,14.00
2018-06-28T02:03:46.079Z,13.90
2018-06-28T02:06:14.994Z,13.90
2018-06-28T02:08:44.017Z,13.80
2018-06-28T02:11:12.086Z,13.80
2018-06-28T02:13:40.165Z,13.80
2018-06-28T02:18:37.158Z,13.80
2018-06-28T02:21:05.401Z,13.80
2018-06-28T02:23:34.066Z,13.70
2018-06-28T02:26:02.562Z,13.80
2018-06-28T02:28:31.106Z,13.70
2018-06-28T02:31:00.051Z,13.70
2018-06-28T02:33:28.803Z,13.70
2018-06-28T02:35:57.161Z,13.70
2018-06-28T02:38:25.254Z,13.70
2018-06-28T02:40:53.422Z,13.60
2018-06-28T02:43:21.970Z,13.70
2018-06-28T02:45:50.062Z,13.60
2018-06-28T02:48:18.962Z,13.60
2018-06-28T02:50:47.329Z,13.50
2018-06-28T02:53:15.799Z,13.50
2018-06-28T02:55:44.010Z,13.40
2018-06-28T02:58:13.459Z,13.40
2018-06-28T03:05:38.511Z,13.40
2018-06-28T03:08:08.242Z,13.40
2018-06-28T03:10:36.457Z,13.30
2018-06-28T03:15:33.538Z,13.30
2018-06-28T03:20:29.662Z,13.30
2018-06-28T03:22:58.036Z,13.30
2018-06-28T03:25:26.702Z,13.20
2018-06-28T03:27:55.230Z,13.20
2018-06-28T03:32:53.370Z,13.10
2018-06-28T03:35:22.105Z,13.20
2018-06-28T03:37:50.942Z,13.30
2018-06-28T03:42:47.914Z,13.40
2018-06-28T03:45:16.314Z,13.40
2018-06-28T03:47:44.485Z,13.40
2018-06-28T03:50:14.306Z,13.30
2018-06-28T03:52:42.502Z,13.30
2018-06-28T04:00:07.405Z,13.20
2018-06-28T04:02:36.508Z,13.20
2018-06-28T04:05:06.118Z,13.20
2018-06-28T04:07:34.293Z,13.20
2018-06-28T04:14:59.177Z,13.20
2018-06-28T04:17:28.010Z,13.30
2018-06-28T04:19:56.714Z,13.20
2018-06-28T04:22:31.443Z,13.20
2018-06-28T04:27:29.324Z,13.40
2018-06-28T04:32:26.009Z,13.30
2018-06-28T04:34:54.210Z,13.60
2018-06-28T04:37:22.280Z,13.60
2018-06-28T04:39:50.469Z,13.70
2018-06-28T04:42:18.531Z,13.80
2018-06-28T04:44:46.738Z,13.90
2018-06-28T04:47:15.900Z,14.10
2018-06-28T04:49:44.260Z,14.30
2018-06-28T04:52:13.276Z,14.70
2018-06-28T04:54:41.991Z,15.20
2018-06-28T04:57:11.058Z,15.70
2018-06-28T04:59:39.154Z,16.10
2018-06-28T05:02:07.554Z,16.50
2018-06-28T05:04:40.036Z,16.50
2018-06-28T05:07:09.259Z,16.80
2018-06-28T05:09:37.509Z,17.10
2018-06-28T05:12:07.427Z,17.20
2018-06-28T05:17:03.915Z,17.70
2018-06-28T05:22:00.126Z,18.30
2018-06-28T05:26:57.121Z,18.60
2018-06-28T05:29:25.389Z,18.70
2018-06-28T05:34:21.468Z,18.70
2018-06-28T05:36:49.810Z,18.50
2018-06-28T05:39:18.090Z,18.70
2018-06-28T05:41:48.383Z,18.90
2018-06-28T05:44:17.003Z,19.30
2018-06-28T05:46:46.869Z,19.50
2018-06-28T05:49:15.823Z,19.60
2018-06-28T05:51:45.777Z,19.40
2018-06-28T05:54:14.637Z,19.90
2018-06-28T05:56:43.409Z,20.10
2018-06-28T05:59:11.701Z,20.30
2018-06-28T06:01:39.902Z,20.60
2018-06-28T06:04:08.750Z,20.60
2018-06-28T06:06:36.965Z,20.50
2018-06-28T06:09:07.561Z,20.60
2018-06-28T06:11:36.314Z,20.70
2018-06-28T06:14:04.543Z,20.40
2018-06-28T06:16:32.626Z,20.20
2018-06-28T06:19:02.602Z,20.40
2018-06-28T06:21:30.726Z,20.80
2018-06-28T06:23:59.613Z,21.10
2018-06-28T06:26:28.392Z,21.30
2018-06-28T06:28:58.525Z,21.50
2018-06-28T06:31:27.805Z,21.90
2018-06-28T06:33:56.917Z,21.50
2018-06-28T06:36:25.355Z,21.10
2018-06-28T06:38:53.452Z,21.20
2018-06-28T06:41:22.436Z,21.20
2018-06-28T06:46:19.114Z,21.30
2018-06-28T06:48:47.258Z,22.00
2018-06-28T06:53:43.550Z,22.20
2018-06-28T06:56:11.697Z,23.00
2018-06-28T06:58:40.542Z,23.40
2018-06-28T07:01:09.033Z,23.30
2018-06-28T07:06:05.509Z,23.80
2018-06-28T07:08:34.238Z,24.30
2018-06-28T07:11:03.137Z,24.00
2018-06-28T07:13:31.113Z,24.20
2018-06-28T07:16:00.164Z,24.00
2018-06-28T07:18:30.582Z,24.00
2018-06-28T07:20:58.674Z,24.80
2018-06-28T07:23:27.270Z,25.80
2018-06-28T07:25:56.085Z,26.70
2018-06-28T07:28:24.517Z,26.20
2018-06-28T07:30:53.311Z,25.30
2018-06-28T07:33:22.217Z,26.00
2018-06-28T07:35:50.306Z,24.80
2018-06-28T07:38:19.310Z,25.70
2018-06-28T07:40:47.432Z,25.30
2018-06-28T07:43:16.110Z,25.90
2018-06-28T07:50:42.347Z,26.70
2018-06-28T07:53:10.705Z,27.60
2018-06-28T07:55:40.054Z,28.70
2018-06-28T07:58:08.834Z,29.10
2018-06-28T08:03:06.246Z,29.50
2018-06-28T08:05:36.390Z,29.90
2018-06-28T08:08:06.462Z,30.70
2018-06-28T08:13:02.939Z,31.00
2018-06-28T08:15:31.103Z,30.90
2018-06-28T08:18:00.985Z,31.30
2018-06-28T08:22:58.358Z,31.50
2018-06-28T08:27:55.533Z,30.40
2018-06-28T08:32:52.440Z,29.60
2018-06-28T08:35:20.607Z,30.10
2018-06-28T08:37:48.682Z,30.90
2018-06-28T08:40:16.782Z,30.80
2018-06-28T08:42:44.882Z,31.70
2018-06-28T08:47:41.766Z,31.80
2018-06-28T08:50:11.298Z,30.10
2018-06-28T08:52:39.947Z,30.80
2018-06-28T08:55:08.052Z,31.70
2018-06-28T08:57:36.114Z,32.20
2018-06-28T09:00:06.450Z,32.60
2018-06-28T09:02:35.522Z,32.50
2018-06-28T09:05:04.514Z,32.90
2018-06-28T09:07:33.200Z,32.20
2018-06-28T09:12:30.326Z,33.70
2018-06-28T09:14:58.859Z,33.80
2018-06-28T09:17:27.470Z,33.90
2018-06-28T09:19:55.852Z,34.00
2018-06-28T09:22:25.017Z,33.70
2018-06-28T09:24:53.442Z,34.30
2018-06-28T09:27:22.077Z,33.80
2018-06-28T09:32:18.192Z,33.20
2018-06-28T09:34:46.951Z,34.30
2018-06-28T09:37:15.301Z,33.00
2018-06-28T09:39:44.230Z,30.90
2018-06-28T09:42:12.433Z,32.00
2018-06-28T09:44:40.562Z,32.50
2018-06-28T09:47:09.080Z,33.60
2018-06-28T09:49:38.638Z,34.10
2018-06-28T09:52:07.245Z,34.20
2018-06-28T09:54:36.204Z,34.40
2018-06-28T09:57:04.444Z,34.40
2018-06-28T09:59:32.525Z,34.30
2018-06-28T10:02:00.658Z,34.50
2018-06-28T10:04:29.142Z,33.60
2018-06-28T10:06:58.083Z,34.00
2018-06-28T10:09:26.375Z,34.90
2018-06-28T10:11:54.477Z,34.70
2018-06-28T10:14:23.034Z,34.70
2018-06-28T10:21:49.042Z,35.20
2018-06-28T10:24:17.970Z,35.00
2018-06-28T10:29:14.185Z,32.20
2018-06-28T10:31:43.071Z,33.30
2018-06-28T10:34:11.247Z,32.10
2018-06-28T10:36:40.323Z,32.40
2018-06-28T10:39:10.097Z,32.60
2018-06-28T10:44:08.249Z,32.50
2018-06-28T10:46:36.399Z,32.30
2018-06-28T10:49:04.462Z,30.40
2018-06-28T10:51:33.370Z,30.80
2018-06-28T10:54:02.185Z,32.20
2018-06-28T10:56:30.451Z,34.10
2018-06-28T11:01:27.657Z,33.70
2018-06-28T11:06:25.306Z,32.90
2018-06-28T11:08:53.705Z,34.20
2018-06-28T11:11:23.190Z,34.70
2018-06-28T11:13:52.056Z,33.00
2018-06-28T11:16:20.491Z,33.60
2018-06-28T11:18:48.790Z,31.30
2018-06-28T11:21:16.876Z,31.30
2018-06-28T11:23:45.164Z,30.40
2018-06-28T11:26:13.485Z,30.10
2018-06-28T11:31:09.970Z,30.40
2018-06-28T11:33:38.558Z,29.30
2018-06-28T11:36:08.133Z,31.20
2018-06-28T11:38:36.679Z,31.80
2018-06-28T11:41:05.165Z,32.80
2018-06-28T11:43:34.050Z,34.20
2018-06-28T11:46:02.222Z,35.20
2018-06-28T11:48:31.252Z,35.80
2018-06-28T11:50:59.674Z,36.20
2018-06-28T11:53:28.725Z,34.80
2018-06-28T11:55:57.157Z,35.00
2018-06-28T11:58:26.006Z,33.60
2018-06-28T12:03:24.014Z,31.90
2018-06-28T12:08:21.278Z,31.40
2018-06-28T12:13:17.668Z,33.60
2018-06-28T12:15:45.874Z,34.00
2018-06-28T12:18:14.202Z,34.60
2018-06-28T12:20:43.497Z,34.70
2018-06-28T12:25:40.129Z,35.10
2018-06-28T12:30:37.820Z,34.50
2018-06-28T12:35:34.177Z,34.60
2018-06-28T12:40:31.033Z,34.10
2018-06-28T12:45:28.582Z,34.30
2018-06-28T12:48:13.565Z,34.30
2018-06-28T12:50:41.699Z,33.90
2018-06-28T12:53:11.011Z,33.10
2018-06-28T12:56:50.441Z,32.00
2018-06-28T12:59:20.970Z,32.00
2018-06-28T13:01:51.095Z,33.40
2018-06-28T13:04:19.842Z,33.80
2018-06-28T13:09:17.492Z,33.10
2018-06-28T13:11:46.369Z,33.30
2018-06-28T13:14:14.883Z,33.10
2018-06-28T13:16:43.013Z,33.10
2018-06-28T13:19:11.317Z,32.80
2018-06-28T13:21:39.483Z,32.70
2018-06-28T13:24:07.891Z,32.40
2018-06-28T13:26:36.237Z,31.70
2018-06-28T13:29:04.518Z,31.90
2018-06-28T13:31:33.338Z,31.40
2018-06-28T13:41:27.123Z,30.90
2018-06-28T13:43:54.898Z,29.30
2018-06-28T13:46:23.104Z,29.20
2018-06-28T13:48:53.003Z,29.50
2018-06-28T13:51:21.973Z,29.40
2018-06-28T13:53:50.989Z,29.40
2018-06-28T13:56:19.514Z,29.20
2018-06-28T13:58:47.642Z,29.10
2018-06-28T14:01:15.730Z,28.80
2018-06-28T14:03:43.781Z,29.00
2018-06-28T14:06:13.770Z,28.70
2018-06-28T14:08:42.667Z,28.30
2018-06-28T14:11:11.525Z,28.70
2018-06-28T14:13:39.624Z,28.90
2018-06-28T14:16:09.093Z,28.80
2018-06-28T14:21:06.627Z,28.40
2018-06-28T14:23:34.797Z,28.40
2018-06-28T14:26:04.283Z,28.60
2018-06-28T14:28:33.340Z,28.70
2018-06-28T14:33:30.986Z,29.00
2018-06-28T14:35:59.377Z,28.40
2018-06-28T14:38:27.933Z,28.10
2018-06-28T14:40:56.145Z,28.60
2018-06-28T14:43:24.218Z,28.80
2018-06-28T14:45:52.677Z,28.80
2018-06-28T14:48:21.586Z,28.80
2018-06-28T14:50:50.274Z,28.80
2018-06-28T14:55:47.426Z,28.20
2018-06-28T14:58:15.582Z,28.20
2018-06-28T15:00:44.243Z,27.90
2018-06-28T15:03:12.811Z,27.90
2018-06-28T15:05:41.705Z,28.30
2018-06-28T15:10:37.942Z,28.50
2018-06-28T15:18:03.282Z,27.70
2018-06-28T15:20:32.249Z,28.10
2018-06-28T15:23:01.416Z,28.50
2018-06-28T15:25:29.609Z,28.50
2018-06-28T15:28:03.930Z,28.80
2018-06-28T15:30:33.046Z,28.90
2018-06-28T15:35:31.314Z,28.90
2018-06-28T15:37:59.515Z,28.90
2018-06-28T15:40:27.600Z,29.10
2018-06-28T15:42:56.213Z,28.70
2018-06-28T15:45:24.709Z,28.90
2018-06-28T15:47:53.546Z,28.80
2018-06-28T15:50:21.702Z,27.90
2018-06-28T15:52:50.294Z,27.80
2018-06-28T15:55:18.713Z,28.20
2018-06-28T16:00:15.602Z,28.80
2018-06-28T16:02:44.378Z,28.90
2018-06-28T16:05:13.024Z,29.00
2018-06-28T16:07:42.517Z,29.00
2018-06-28T16:10:10.674Z,28.60
2018-06-28T16:12:39.683Z,28.50
2018-06-28T16:15:08.433Z,27.80
2018-06-28T16:17:36.510Z,27.40
2018-06-28T16:20:04.937Z,27.80
2018-06-28T16:22:33.057Z,28.20
2018-06-28T16:25:01.287Z,28.30
2018-06-28T16:27:30.451Z,28.50
2018-06-28T16:29:59.460Z,28.40
2018-06-28T16:32:27.634Z,28.50
2018-06-28T16:34:56.007Z,28.50
2018-06-28T16:37:24.331Z,28.50
2018-06-28T16:39:52.566Z,28.20
2018-06-28T16:42:21.781Z,28.20
2018-06-28T16:44:50.480Z,28.00
2018-06-28T16:47:18.555Z,27.80
2018-06-28T16:54:44.578Z,28.00
2018-06-28T16:57:13.582Z,28.00
2018-06-28T16:59:42.271Z,27.80
2018-06-28T17:02:10.220Z,27.60
2018-06-28T17:04:39.524Z,27.60
2018-06-28T17:07:07.826Z,27.50
2018-06-28T17:09:36.945Z,27.40
2018-06-28T17:12:06.299Z,27.20
2018-06-28T17:14:34.366Z,26.40
2018-06-28T17:17:02.589Z,25.80
2018-06-28T17:19:32.063Z,25.50
2018-06-28T17:22:00.486Z,25.50
2018-06-28T17:24:28.662Z,25.40
2018-06-28T17:29:25.797Z,25.30
2018-06-28T17:31:54.838Z,25.20
2018-06-28T17:36:51.437Z,25.00
2018-06-28T17:39:19.490Z,25.00
2018-06-28T17:41:48.391Z,24.90
2018-06-28T17:44:16.613Z,24.70
2018-06-28T17:46:46.149Z,24.60
2018-06-28T17:51:43.022Z,24.60
2018-06-28T17:54:11.342Z,24.50
2018-06-28T17:56:40.583Z,24.40
2018-06-28T18:01:37.309Z,24.20
2018-06-28T18:04:07.223Z,24.20
2018-06-28T18:06:35.385Z,24.20
2018-06-28T18:09:05.684Z,24.10
2018-06-28T18:14:02.474Z,24.00
2018-06-28T18:16:31.891Z,23.90
2018-06-28T18:19:00.463Z,23.80
2018-06-28T18:21:28.585Z,23.80
2018-06-28T18:23:57.918Z,23.70
2018-06-28T18:26:25.989Z,23.60
2018-06-28T18:28:54.386Z,23.50
2018-06-28T18:31:22.534Z,23.50
2018-06-28T18:33:51.349Z,23.40
2018-06-28T18:36:19.450Z,23.30
2018-06-28T18:38:47.577Z,23.30
2018-06-28T18:41:15.790Z,23.30
2018-06-28T18:43:44.335Z,23.20
2018-06-28T18:46:12.934Z,23.20
2018-06-28T18:48:41.094Z,23.10
2018-06-28T18:51:09.530Z,23.10
2018-06-28T18:58:34.521Z,22.80
2018-06-28T19:01:02.689Z,22.70
2018-06-28T19:03:31.562Z,22.60
2018-06-28T19:06:01.174Z,22.50
2018-06-28T19:08:29.844Z,22.40
2018-06-28T19:10:59.190Z,22.20
2018-06-28T19:13:28.115Z,22.20
2018-06-28T19:16:02.242Z,22.10
2018-06-28T19:21:05.790Z,21.80
2018-06-28T19:23:39.266Z,21.70
2018-06-28T19:28:35.681Z,21.60
2018-06-28T19:31:09.865Z,21.40
2018-06-28T19:33:38.100Z,21.30
2018-06-28T19:39:39.284Z,20.90
2018-06-28T19:42:13.022Z,20.70
2018-06-28T19:44:41.320Z,20.40
2018-06-28T19:47:09.763Z,20.30
2018-06-28T19:49:43.572Z,20.10
2018-06-28T19:52:16.981Z,20.00
2018-06-28T19:54:46.001Z,20.00
2018-06-28T19:57:14.989Z,19.90
2018-06-28T19:59:47.432Z,19.80
2018-06-28T20:02:22.117Z,19.70
2018-06-28T20:04:50.302Z,19.50
2018-06-28T20:07:18.927Z,19.40
2018-06-28T20:09:47.173Z,19.20
2018-06-28T20:14:54.580Z,19.30
2018-06-28T20:24:58.445Z,19.30
2018-06-28T20:27:32.030Z,19.40
2018-06-28T20:32:39.641Z,19.30
2018-06-28T20:35:08.158Z,19.30
2018-06-28T20:37:37.599Z,19.20
2018-06-28T20:40:06.054Z,19.10
2018-06-28T20:42:34.938Z,19.10
2018-06-28T20:45:03.419Z,19.20
2018-06-28T20:47:32.094Z,19.10
2018-06-28T20:50:00.313Z,19.00
2018-06-28T20:52:28.430Z,19.00
2018-06-28T20:57:25.144Z,18.90
2018-06-28T20:59:53.641Z,18.80
2018-06-28T21:02:22.727Z,18.60
2018-06-28T21:04:51.886Z,18.30
2018-06-28T21:07:21.266Z,18.20
2018-06-28T21:12:20.045Z,18.20
2018-06-28T21:14:48.908Z,18.20
2018-06-28T21:17:17.735Z,18.30
2018-06-28T21:19:46.115Z,18.40
2018-06-28T21:22:14.249Z,18.40
2018-06-28T21:24:42.457Z,18.50
2018-06-28T21:32:07.429Z,18.60
2018-06-28T21:34:37.672Z,18.50
2018-06-28T21:42:02.123Z,18.30
2018-06-28T21:44:31.118Z,18.20
2018-06-28T21:46:59.337Z,18.20
2018-06-28T21:49:28.018Z,18.10
2018-06-28T21:54:25.641Z,18.10
2018-06-28T21:56:54.326Z,18.00
2018-06-28T21:59:23.196Z,17.80
2018-06-28T22:01:52.934Z,17.70
2018-06-28T22:04:21.497Z,17.70
2018-06-28T22:06:50.429Z,17.60
2018-06-28T22:09:19.865Z,17.60
2018-06-28T22:14:17.262Z,17.50
2018-06-28T22:16:45.986Z,17.40
2018-06-28T22:19:14.138Z,17.40
2018-06-28T22:21:43.108Z,17.40
2018-06-28T22:24:12.047Z,17.30
2018-06-28T22:26:41.449Z,17.20
2018-06-28T22:29:10.769Z,17.10
2018-06-28T22:31:39.573Z,17.00
2018-06-28T23:58:34.841Z,16.60
